Time;durP1;ratioP1;P1;durP2;ratioP2;P2;SDS_P1;SDS_P2;PMS_P1;PMS_P2;Temp;Humidity;BMP_temperature;BMP_pressure;BME280_temperature;BME280_humidity;BME280_pressure;Samples;Min_cycle;Max_cycle;Signal;HPM_P1;HPM_P2
2022/09/29 00:00:34;;;;;;;0.60;0.60;;;16.40;57.50;;;;;;5067913;28;45364;-72
2022/09/29 00:03:02;;;;;;;0.70;0.70;;;16.40;57.50;;;;;;5067483;28;45242;-72
2022/09/29 00:05:29;;;;;;;0.70;0.70;;;16.40;57.50;;;;;;5067177;28;45561;-72
2022/09/29 00:07:56;;;;;;;1.73;0.80;;;16.40;57.50;;;;;;5065155;28;45276;-72
2022/09/29 00:10:23;;;;;;;0.50;0.50;;;16.40;57.50;;;;;;5067679;28;45286;-72
2022/09/29 00:12:50;;;;;;;0.80;0.77;;;16.30;57.50;;;;;;5067866;28;45479;-72
2022/09/29 00:15:17;;;;;;;0.73;0.63;;;16.30;57.50;;;;;;5067540;28;45641;-72
2022/09/29 00:17:44;;;;;;;0.90;0.68;;;16.30;57.50;;;;;;5066762;28;45270;-72
2022/09/29 00:20:12;;;;;;;1.25;0.82;;;16.30;57.50;;;;;;5067952;28;45274;-72
2022/09/29 00:22:39;;;;;;;0.70;0.70;;;16.30;57.50;;;;;;5067722;28;45361;-72
2022/09/29 00:25:06;;;;;;;0.63;0.63;;;16.30;57.50;;;;;;5067668;28;45355;-72
2022/09/29 00:27:33;;;;;;;0.60;0.60;;;16.30;57.50;;;;;;5067399;28;45309;-72
2022/09/29 00:30:00;;;;;;;0.60;0.60;;;16.30;57.50;;;;;;5067580;28;44728;-72
2022/09/29 00:32:26;;;;;;;0.80;0.73;;;16.30;57.50;;;;;;5067945;28;45297;-72
2022/09/29 00:34:53;;;;;;;0.60;0.60;;;16.30;57.50;;;;;;5067279;28;47324;-71
2022/09/29 00:37:21;;;;;;;0.50;0.50;;;16.30;57.50;;;;;;5067491;28;45407;-72
2022/09/29 00:39:49;;;;;;;1.55;0.75;;;16.30;57.50;;;;;;5047339;28;45306;-72
2022/09/29 00:42:18;;;;;;;0.60;0.60;;;16.30;57.50;;;;;;5047336;28;45516;-72
2022/09/29 00:45:07;;;;;;;3.33;0.73;;;16.30;57.50;;;;;;5046962;28;47474;-72
2022/09/29 00:47:34;;;;;;;0.43;0.43;;;16.30;57.50;;;;;;5042722;28;45191;-72
2022/09/29 00:50:02;;;;;;;0.60;0.60;;;16.30;57.50;;;;;;5046995;28;45334;-72
2022/09/29 00:52:32;;;;;;;0.95;0.60;;;16.30;57.50;;;;;;5047232;28;45340;-73
2022/09/29 00:55:00;;;;;;;0.60;0.60;;;16.30;57.60;;;;;;5045936;28;45220;-71
2022/09/29 00:57:28;;;;;;;1.17;0.70;;;16.20;57.60;;;;;;5046165;28;45326;-72
2022/09/29 00:59:57;;;;;;;0.68;0.68;;;16.20;57.60;;;;;;5047072;28;45361;-72
2022/09/29 01:02:24;;;;;;;0.70;0.70;;;16.20;57.60;;;;;;5046778;28;45123;-73
2022/09/29 01:04:51;;;;;;;1.27;0.63;;;16.20;57.50;;;;;;5046435;28;45417;-72
2022/09/29 01:07:18;;;;;;;0.55;0.55;;;16.20;57.60;;;;;;5046471;28;45301;-72
2022/09/29 01:09:46;;;;;;;0.52;0.50;;;16.20;57.60;;;;;;5046582;28;45246;-72
2022/09/29 01:12:13;;;;;;;1.13;0.60;;;16.20;57.60;;;;;;5046242;28;45195;-72
2022/09/29 01:14:40;;;;;;;0.55;0.55;;;16.20;57.60;;;;;;5046105;28;45469;-72
2022/09/29 01:17:07;;;;;;;1.23;0.60;;;16.20;57.60;;;;;;5046220;28;45310;-72
2022/09/29 01:19:40;;;;;;;0.55;0.50;;;16.20;57.60;;;;;;5046384;28;45321;-72
2022/09/29 01:22:10;;;;;;;2.35;0.77;;;16.20;57.50;;;;;;5046643;28;45328;-73
2022/09/29 01:25:05;;;;;;;0.50;0.50;;;16.20;57.50;;;;;;5046085;28;46348;-72
2022/09/29 01:28:02;;;;;;;0.50;0.50;;;16.20;57.50;;;;;;5046207;28;45246;-72
2022/09/29 01:30:46;;;;;;;1.25;0.75;;;16.20;57.50;;;;;;5039906;28;45275;-72
2022/09/29 01:33:22;;;;;;;0.60;0.60;;;16.20;57.50;;;;;;5046681;28;45343;-72
2022/09/29 01:35:52;;;;;;;0.55;0.55;;;16.20;57.50;;;;;;5053800;28;45622;-72
2022/09/29 01:38:34;;;;;;;0.60;0.60;;;16.20;57.50;;;;;;5065145;28;45407;-72
2022/09/29 01:41:05;;;;;;;0.50;0.50;;;16.20;57.50;;;;;;5065434;28;45357;-72
2022/09/29 01:43:34;;;;;;;0.50;0.50;;;16.20;57.50;;;;;;5065772;28;45181;-72
2022/09/29 01:46:04;;;;;;;1.15;0.60;;;16.20;57.60;;;;;;5065203;28;45201;-72
2022/09/29 01:48:32;;;;;;;0.88;0.75;;;16.20;57.70;;;;;;5065364;28;45301;-72
2022/09/29 01:51:01;;;;;;;1.25;0.47;;;16.20;57.70;;;;;;5065453;28;45221;-72
2022/09/29 01:53:30;;;;;;;0.60;0.60;;;16.20;57.70;;;;;;5065574;28;45295;-72
2022/09/29 01:56:00;;;;;;;1.52;0.70;;;16.20;57.70;;;;;;5065056;28;46652;-72
2022/09/29 01:58:29;;;;;;;0.55;0.50;;;16.20;57.60;;;;;;5065055;28;45439;-72
2022/09/29 02:00:58;;;;;;;0.63;0.60;;;16.10;57.60;;;;;;5065235;28;45280;-72
2022/09/29 02:03:28;;;;;;;0.77;0.77;;;16.10;57.60;;;;;;5065470;28;45211;-72
2022/09/29 02:05:56;;;;;;;0.70;0.70;;;16.10;57.60;;;;;;5065234;28;47489;-73
2022/09/29 02:08:25;;;;;;;0.98;0.50;;;16.10;57.60;;;;;;5065093;28;45202;-72
2022/09/29 02:10:53;;;;;;;0.90;0.60;;;16.10;57.60;;;;;;5064820;28;45262;-72
2022/09/29 02:13:20;;;;;;;0.65;0.65;;;16.10;57.70;;;;;;5065153;28;45293;-72
2022/09/29 02:15:48;;;;;;;0.50;0.50;;;16.10;57.60;;;;;;5064847;28;46616;-72
2022/09/29 02:18:18;;;;;;;0.52;0.52;;;16.10;57.60;;;;;;5064806;28;45206;-72
2022/09/29 02:20:48;;;;;;;0.77;0.50;;;16.10;57.60;;;;;;5065063;28;45302;-72
2022/09/29 02:23:14;;;;;;;0.50;0.50;;;16.10;57.60;;;;;;5065126;28;45364;-72
2022/09/29 02:25:41;;;;;;;0.63;0.50;;;16.10;57.70;;;;;;5064652;28;46402;-72
2022/09/29 02:28:08;;;;;;;0.45;0.45;;;16.10;57.70;;;;;;5064837;28;45364;-72
2022/09/29 02:30:35;;;;;;;0.77;0.45;;;16.10;57.70;;;;;;5064895;28;45311;-73
2022/09/29 02:33:02;;;;;;;1.83;0.70;;;16.10;57.70;;;;;;5065081;28;45341;-72
2022/09/29 02:35:32;;;;;;;0.50;0.50;;;16.10;57.60;;;;;;5064555;28;45492;-73
2022/09/29 02:38:03;;;;;;;0.65;0.60;;;16.10;57.60;;;;;;5064500;28;45276;-72
2022/09/29 02:40:37;;;;;;;0.50;0.50;;;16.10;57.60;;;;;;5064906;28;45167;-72
2022/09/29 02:43:34;;;;;;;0.50;0.50;;;16.10;57.50;;;;;;5068422;28;45200;-72
2022/09/29 02:46:07;;;;;;;0.73;0.57;;;16.10;58.10;;;;;;5036445;28;45202;-73
2022/09/29 02:48:47;;;;;;;0.40;0.40;;;16.10;57.60;;;;;;5067972;28;45322;-72
2022/09/29 02:51:16;;;;;;;0.60;0.60;;;16.10;57.50;;;;;;5068258;28;45366;-72
2022/09/29 02:53:52;;;;;;;0.85;0.45;;;16.10;57.50;;;;;;5068318;28;45369;-73
2022/09/29 02:56:24;;;;;;;0.40;0.40;;;16.00;57.50;;;;;;5067788;28;46415;-72
2022/09/29 02:58:53;;;;;;;0.68;0.68;;;16.10;57.50;;;;;;5067891;28;45407;-72
2022/09/29 03:01:20;;;;;;;1.80;0.70;;;16.00;57.50;;;;;;5067982;28;45155;-72
2022/09/29 03:03:47;;;;;;;0.47;0.47;;;16.00;57.50;;;;;;5068129;28;45214;-72
2022/09/29 03:06:13;;;;;;;0.77;0.77;;;16.10;57.50;;;;;;5067587;28;46733;-72
2022/09/29 03:08:40;;;;;;;0.40;0.40;;;16.00;57.40;;;;;;5067769;28;45335;-72
2022/09/29 03:11:08;;;;;;;0.50;0.50;;;16.10;57.40;;;;;;5067533;28;45201;-72
2022/09/29 03:13:35;;;;;;;0.50;0.50;;;16.00;57.30;;;;;;5067888;28;45409;-72
2022/09/29 03:16:02;;;;;;;0.50;0.50;;;16.00;57.40;;;;;;5067491;28;45325;-72
2022/09/29 03:18:29;;;;;;;0.68;0.45;;;16.00;57.40;;;;;;5067456;28;45295;-73
2022/09/29 03:20:56;;;;;;;0.60;0.60;;;16.00;57.40;;;;;;5067534;28;45281;-72
2022/09/29 03:23:23;;;;;;;0.52;0.52;;;16.00;57.40;;;;;;5067876;28;45237;-72
2022/09/29 03:25:50;;;;;;;0.40;0.40;;;16.00;57.40;;;;;;5064775;28;45208;-73
2022/09/29 03:28:18;;;;;;;0.50;0.50;;;16.00;57.40;;;;;;5067679;28;45315;-72
2022/09/29 03:30:45;;;;;;;0.60;0.60;;;16.00;57.50;;;;;;5067473;28;45318;-72
2022/09/29 03:33:11;;;;;;;0.65;0.60;;;16.00;57.40;;;;;;5067711;28;45596;-72
2022/09/29 03:35:38;;;;;;;0.55;0.47;;;15.90;57.40;;;;;;5067261;28;47368;-72
2022/09/29 03:38:05;;;;;;;1.45;0.52;;;15.90;57.40;;;;;;5067068;28;45235;-72
2022/09/29 03:40:32;;;;;;;0.98;0.80;;;15.90;57.40;;;;;;5067447;28;45179;-72
2022/09/29 03:42:59;;;;;;;0.82;0.68;;;15.90;57.40;;;;;;5067726;28;45299;-72
2022/09/29 03:45:27;;;;;;;0.40;0.40;;;15.90;57.40;;;;;;5067043;28;46340;-72
2022/09/29 03:47:54;;;;;;;0.43;0.43;;;15.90;57.40;;;;;;5067248;28;45243;-72
2022/09/29 03:50:21;;;;;;;0.47;0.47;;;15.90;57.40;;;;;;5066982;28;45266;-73
2022/09/29 03:52:47;;;;;;;0.60;0.40;;;15.90;57.40;;;;;;5066130;28;45466;-72
2022/09/29 03:55:14;;;;;;;0.63;0.63;;;15.90;57.40;;;;;;5066884;28;46437;-72
2022/09/29 03:57:41;;;;;;;0.50;0.50;;;15.90;57.50;;;;;;5066761;28;45374;-73
2022/09/29 04:00:12;;;;;;;0.50;0.50;;;15.90;57.50;;;;;;5067047;28;45290;-73
2022/09/29 04:02:40;;;;;;;0.38;0.38;;;15.90;57.50;;;;;;5067277;28;45372;-73
2022/09/29 04:05:07;;;;;;;0.50;0.50;;;15.90;57.60;;;;;;5066786;28;46987;-72
2022/09/29 04:07:34;;;;;;;0.50;0.50;;;15.90;57.60;;;;;;5066713;28;45236;-72
2022/09/29 04:10:01;;;;;;;0.77;0.50;;;15.90;57.60;;;;;;5066899;28;45239;-72
2022/09/29 04:12:28;;;;;;;0.55;0.55;;;15.90;57.60;;;;;;5066531;28;45324;-73
2022/09/29 04:14:54;;;;;;;0.40;0.40;;;15.90;58.20;;;;;;5066691;28;46735;-73
2022/09/29 04:17:21;;;;;;;0.50;0.50;;;15.90;57.60;;;;;;5066511;28;45392;-72
2022/09/29 04:19:49;;;;;;;1.20;0.50;;;15.90;57.60;;;;;;5066519;28;45183;-72
2022/09/29 04:22:17;;;;;;;0.30;0.30;;;15.80;57.60;;;;;;5066847;28;45396;-72
2022/09/29 04:24:44;;;;;;;0.50;0.50;;;15.80;58.30;;;;;;5066623;28;46664;-72
2022/09/29 04:27:11;;;;;;;0.50;0.50;;;15.80;57.60;;;;;;5066425;28;45381;-72
2022/09/29 04:29:38;;;;;;;0.63;0.63;;;15.80;57.60;;;;;;5066589;28;45298;-73
2022/09/29 04:32:06;;;;;;;0.50;0.50;;;15.80;57.60;;;;;;5066763;28;45238;-73
2022/09/29 04:34:33;;;;;;;1.00;0.68;;;15.80;57.60;;;;;;5066535;28;45748;-72
2022/09/29 04:37:01;;;;;;;0.40;0.40;;;15.80;57.60;;;;;;5066237;28;45300;-72
2022/09/29 04:39:28;;;;;;;0.63;0.63;;;15.80;57.60;;;;;;5066343;28;45276;-72
2022/09/29 04:41:54;;;;;;;0.52;0.50;;;15.80;57.60;;;;;;5066663;28;45231;-73
2022/09/29 04:44:23;;;;;;;0.65;0.40;;;15.80;57.60;;;;;;5066273;28;45508;-72
2022/09/29 04:46:50;;;;;;;0.52;0.40;;;15.80;58.20;;;;;;5066707;28;45361;-72
2022/09/29 04:49:17;;;;;;;0.63;0.45;;;15.80;57.60;;;;;;5066401;28;45486;-72
2022/09/29 04:51:44;;;;;;;0.82;0.80;;;15.80;57.60;;;;;;5063841;28;45259;-73
2022/09/29 04:54:12;;;;;;;0.40;0.40;;;15.80;57.60;;;;;;5066261;28;46439;-72
2022/09/29 04:56:39;;;;;;;0.77;0.77;;;15.80;57.60;;;;;;5066380;28;45315;-72
2022/09/29 04:59:07;;;;;;;0.60;0.60;;;15.80;57.60;;;;;;5066381;28;45249;-73
2022/09/29 05:01:34;;;;;;;0.65;0.60;;;15.80;57.60;;;;;;5066442;28;45253;-72
2022/09/29 05:04:01;;;;;;;0.57;0.47;;;15.80;57.70;;;;;;5065688;28;45703;-72
2022/09/29 05:06:28;;;;;;;0.60;0.60;;;15.80;57.60;;;;;;5065881;28;45370;-72
2022/09/29 05:08:55;;;;;;;0.82;0.70;;;15.80;57.60;;;;;;5065962;28;45316;-73
2022/09/29 05:11:23;;;;;;;0.80;0.60;;;15.80;57.50;;;;;;5065853;28;45426;-72
2022/09/29 05:13:50;;;;;;;0.50;0.50;;;15.80;57.50;;;;;;5065739;28;47313;-72
2022/09/29 05:16:17;;;;;;;0.60;0.50;;;15.80;57.40;;;;;;5065830;28;45209;-72
2022/09/29 05:18:44;;;;;;;0.50;0.50;;;15.80;57.50;;;;;;5065821;28;45248;-72
2022/09/29 05:21:11;;;;;;;0.57;0.57;;;15.80;57.50;;;;;;5065911;28;45464;-72
2022/09/29 05:23:38;;;;;;;0.60;0.60;;;15.80;57.60;;;;;;5065556;28;45521;-73
2022/09/29 05:26:05;;;;;;;0.73;0.70;;;15.80;57.60;;;;;;5065598;28;45293;-73
2022/09/29 05:28:33;;;;;;;0.50;0.50;;;15.80;57.60;;;;;;5065771;28;45226;-72
2022/09/29 05:31:03;;;;;;;0.50;0.50;;;15.80;57.60;;;;;;5065907;28;45280;-73
2022/09/29 05:33:30;;;;;;;0.60;0.60;;;15.80;57.60;;;;;;5065462;28;45305;-73
2022/09/29 05:35:57;;;;;;;0.73;0.60;;;15.80;57.60;;;;;;5062702;28;45208;-73
2022/09/29 05:38:24;;;;;;;0.50;0.50;;;15.80;57.60;;;;;;5065480;28;45304;-72
2022/09/29 05:40:51;;;;;;;0.60;0.60;;;15.80;57.70;;;;;;5066102;28;45284;-72
2022/09/29 05:43:18;;;;;;;1.05;0.70;;;15.80;57.70;;;;;;5065444;28;47304;-73
2022/09/29 05:45:46;;;;;;;0.47;0.47;;;15.80;57.70;;;;;;5065495;28;45245;-72
2022/09/29 05:48:13;;;;;;;0.63;0.60;;;15.80;57.70;;;;;;5065567;28;45294;-73
2022/09/29 05:50:42;;;;;;;0.82;0.80;;;15.70;57.70;;;;;;5065724;28;45330;-73
2022/09/29 05:53:09;;;;;;;0.50;0.50;;;15.70;57.80;;;;;;5065484;28;45419;-72
2022/09/29 05:55:36;;;;;;;1.42;0.70;;;15.70;57.70;;;;;;5065301;28;45257;-72
2022/09/29 05:58:02;;;;;;;0.70;0.70;;;15.70;57.70;;;;;;5065400;28;45213;-72
2022/09/29 06:00:30;;;;;;;1.17;0.70;;;15.80;57.70;;;;;;5065566;28;45381;-72
2022/09/29 06:02:59;;;;;;;0.73;0.73;;;15.80;57.70;;;;;;5065031;28;46368;-72
2022/09/29 06:05:26;;;;;;;0.60;0.60;;;15.80;57.70;;;;;;5065069;28;45183;-72
2022/09/29 06:07:53;;;;;;;0.68;0.40;;;15.80;57.70;;;;;;5065221;28;45364;-72
2022/09/29 06:10:20;;;;;;;1.35;0.70;;;15.80;57.70;;;;;;5065171;28;45289;-72
2022/09/29 06:12:47;;;;;;;1.27;0.70;;;15.80;57.70;;;;;;5064963;28;46973;-71
2022/09/29 06:15:14;;;;;;;0.60;0.60;;;15.80;57.70;;;;;;5065132;28;45259;-72
2022/09/29 06:17:41;;;;;;;0.77;0.60;;;15.70;57.80;;;;;;5068458;28;45236;-72
2022/09/29 06:20:10;;;;;;;1.20;0.70;;;15.70;57.70;;;;;;5068865;28;45221;-73
2022/09/29 06:22:37;;;;;;;1.23;0.68;;;15.80;57.70;;;;;;5068315;28;45448;-72
2022/09/29 06:25:04;;;;;;;0.73;0.68;;;15.70;57.70;;;;;;5068407;28;45193;-72
2022/09/29 06:27:31;;;;;;;0.63;0.63;;;15.70;57.70;;;;;;5068433;28;45250;-72
2022/09/29 06:29:59;;;;;;;1.20;0.70;;;15.70;57.70;;;;;;5068664;28;45287;-73
2022/09/29 06:32:26;;;;;;;1.08;0.80;;;15.70;57.80;;;;;;5068333;28;46443;-72
2022/09/29 06:37:38;;;;;;;0.80;0.80;;;15.70;57.80;;;;;;5050664;28;45324;-72
2022/09/29 06:40:07;;;;;;;1.00;0.70;;;15.70;57.80;;;;;;5068379;28;45526;-72
2022/09/29 06:42:33;;;;;;;0.68;0.68;;;15.70;57.90;;;;;;5068121;28;45380;-73
2022/09/29 06:45:00;;;;;;;0.77;0.77;;;15.70;57.90;;;;;;5068724;28;45371;-72
2022/09/29 06:47:27;;;;;;;0.80;0.80;;;15.70;57.90;;;;;;5068700;28;45237;-73
2022/09/29 06:49:54;;;;;;;1.00;0.70;;;15.80;57.90;;;;;;5069038;28;45470;-72
2022/09/29 06:52:21;;;;;;;0.70;0.70;;;15.80;57.90;;;;;;5068519;28;45273;-72
2022/09/29 06:54:49;;;;;;;0.93;0.73;;;15.80;57.90;;;;;;5068568;28;45190;-72
2022/09/29 06:57:17;;;;;;;1.52;0.90;;;15.80;57.90;;;;;;5068444;28;45397;-73
2022/09/29 06:59:44;;;;;;;1.77;0.90;;;15.80;58.00;;;;;;5068777;28;45505;-72
2022/09/29 07:02:11;;;;;;;0.85;0.80;;;15.80;58.00;;;;;;5068400;28;45401;-73
2022/09/29 07:04:38;;;;;;;0.60;0.60;;;15.80;58.60;;;;;;5068311;28;45154;-73
2022/09/29 07:07:05;;;;;;;1.42;0.85;;;15.80;58.10;;;;;;5069313;28;45442;-73
2022/09/29 07:09:32;;;;;;;1.02;0.75;;;15.80;57.90;;;;;;5069768;28;45410;-73
2022/09/29 07:12:00;;;;;;;0.70;0.70;;;15.80;58.10;;;;;;5083741;28;47300;-73
2022/09/29 07:14:27;;;;;;;0.77;0.77;;;15.80;58.10;;;;;;5086404;28;45177;-73
2022/09/29 07:16:54;;;;;;;0.93;0.70;;;15.80;58.00;;;;;;5088216;28;45277;-73
2022/09/29 07:19:21;;;;;;;1.00;0.90;;;15.80;58.00;;;;;;5088411;28;45609;-73
2022/09/29 07:21:47;;;;;;;0.65;0.65;;;15.80;58.10;;;;;;5088011;28;45765;-72
2022/09/29 07:24:14;;;;;;;0.88;0.68;;;15.80;58.00;;;;;;5087911;28;45324;-73
2022/09/29 07:26:41;;;;;;;0.60;0.60;;;15.80;58.00;;;;;;5087808;27;45249;-72
2022/09/29 07:29:09;;;;;;;0.65;0.65;;;15.90;58.10;;;;;;5088201;28;45158;-72
2022/09/29 07:31:36;;;;;;;0.95;0.65;;;15.90;58.10;;;;;;5087564;28;46641;-73
2022/09/29 07:34:03;;;;;;;0.70;0.70;;;15.90;58.10;;;;;;5087752;28;45248;-74
2022/09/29 07:36:30;;;;;;;0.70;0.70;;;15.90;58.00;;;;;;5074204;28;45252;-72
2022/09/29 07:38:57;;;;;;;2.08;0.80;;;15.90;58.10;;;;;;5081842;28;45195;-72
2022/09/29 07:41:23;;;;;;;1.10;0.70;;;15.90;58.10;;;;;;5088646;28;46641;-73
2022/09/29 07:43:50;;;;;;;1.15;0.80;;;15.90;58.10;;;;;;5088442;28;45317;-72
2022/09/29 07:46:19;;;;;;;1.25;0.70;;;15.90;58.70;;;;;;5088603;28;45333;-72
2022/09/29 07:48:45;;;;;;;0.90;0.77;;;15.90;58.10;;;;;;5088668;28;45249;-72
2022/09/29 07:51:13;;;;;;;0.95;0.60;;;15.90;58.20;;;;;;5088412;28;45437;-72
2022/09/29 07:53:40;;;;;;;0.80;0.80;;;15.90;58.20;;;;;;5088335;28;45302;-73
2022/09/29 07:56:08;;;;;;;0.82;0.75;;;15.90;58.20;;;;;;5088749;28;45240;-73
2022/09/29 07:58:36;;;;;;;0.98;0.65;;;15.90;58.20;;;;;;5088726;28;45177;-72
2022/09/29 08:01:05;;;;;;;0.88;0.77;;;15.90;58.20;;;;;;5088279;28;45584;-73
2022/09/29 08:03:33;;;;;;;0.82;0.70;;;15.90;58.20;;;;;;5088369;28;45293;-73
2022/09/29 08:06:00;;;;;;;0.60;0.60;;;16.00;58.20;;;;;;5085886;28;45312;-72
2022/09/29 08:08:27;;;;;;;0.88;0.73;;;16.00;58.90;;;;;;5087820;28;45166;-72
2022/09/29 08:11:02;;;;;;;0.93;0.73;;;16.00;58.40;;;;;;5087311;28;45476;-72
2022/09/29 08:13:30;;;;;;;1.15;0.70;;;16.00;58.30;;;;;;5087667;28;45198;-72
2022/09/29 08:15:58;;;;;;;0.60;0.60;;;16.00;58.20;;;;;;5088082;28;45304;-73
2022/09/29 08:18:25;;;;;;;0.70;0.70;;;16.00;58.30;;;;;;5085800;28;45471;-72
2022/09/29 08:20:53;;;;;;;0.60;0.60;;;16.00;58.30;;;;;;5087725;28;45262;-72
2022/09/29 08:23:20;;;;;;;1.33;0.80;;;16.00;58.20;;;;;;5087883;28;45384;-72
2022/09/29 08:25:47;;;;;;;1.27;0.80;;;16.00;58.30;;;;;;5087933;28;45314;-73
2022/09/29 08:28:14;;;;;;;0.80;0.80;;;16.00;58.30;;;;;;5088238;28;45429;-72
2022/09/29 08:30:41;;;;;;;0.82;0.75;;;16.00;58.20;;;;;;5087696;28;45410;-72
2022/09/29 08:33:13;;;;;;;0.60;0.60;;;16.10;58.30;;;;;;5087735;28;45204;-73
2022/09/29 08:35:40;;;;;;;0.82;0.80;;;16.10;58.40;;;;;;5088160;28;45320;-72
2022/09/29 08:38:08;;;;;;;0.80;0.70;;;16.10;58.30;;;;;;5081530;28;45447;-73
2022/09/29 08:40:35;;;;;;;0.80;0.80;;;16.00;58.20;;;;;;5066981;28;45196;-73
2022/09/29 08:43:06;;;;;;;0.75;0.75;;;16.10;58.20;;;;;;5067300;28;45340;-72
2022/09/29 08:45:35;;;;;;;2.22;0.80;;;16.10;58.40;;;;;;5067394;28;45225;-72
2022/09/29 08:48:05;;;;;;;2.15;0.70;;;16.10;58.30;;;;;;5067412;28;45407;-73
2022/09/29 08:50:34;;;;;;;1.17;0.70;;;16.10;58.30;;;;;;5067019;28;47540;-72
2022/09/29 08:53:02;;;;;;;0.80;0.80;;;16.10;58.40;;;;;;5067573;28;45325;-72
2022/09/29 08:55:35;;;;;;;0.70;0.70;;;16.10;58.50;;;;;;5067230;28;45337;-72
2022/09/29 08:58:02;;;;;;;0.60;0.60;;;16.10;58.40;;;;;;5067512;28;45498;-72
2022/09/29 09:00:37;;;;;;;0.80;0.80;;;16.10;58.60;;;;;;5067275;28;45351;-72
2022/09/29 09:03:18;;;;;;;0.93;0.88;;;16.10;58.50;;;;;;5067523;28;45424;-72
2022/09/29 09:06:12;;;;;;;0.77;0.73;;;16.10;58.50;;;;;;5067296;28;45246;-72
2022/09/29 09:08:46;;;;;;;0.70;0.70;;;16.10;58.50;;;;;;5062189;28;45286;-73
2022/09/29 09:11:23;;;;;;;0.80;0.80;;;16.20;58.60;;;;;;5067242;28;46687;-72
2022/09/29 09:13:56;;;;;;;0.85;0.73;;;16.20;58.40;;;;;;5067170;28;45246;-72
2022/09/29 09:16:28;;;;;;;0.70;0.70;;;16.20;59.00;;;;;;5067551;28;45253;-74
2022/09/29 09:19:24;;;;;;;0.75;0.75;;;16.20;59.00;;;;;;5067684;28;45417;-72
2022/09/29 09:21:53;;;;;;;0.60;0.60;;;16.20;58.40;;;;;;5066722;28;45251;-72
2022/09/29 09:24:25;;;;;;;0.93;0.60;;;16.20;58.50;;;;;;5066335;28;45194;-72
2022/09/29 09:26:53;;;;;;;0.70;0.70;;;16.20;58.40;;;;;;5066537;28;45135;-73
2022/09/29 09:29:23;;;;;;;0.80;0.80;;;16.20;58.40;;;;;;5067406;28;45190;-72
2022/09/29 09:31:52;;;;;;;1.05;0.70;;;16.20;58.40;;;;;;5066513;28;45380;-73
2022/09/29 09:34:20;;;;;;;0.88;0.80;;;16.30;58.50;;;;;;5066639;28;45233;-73
2022/09/29 09:36:49;;;;;;;1.30;0.85;;;16.20;58.50;;;;;;5066404;28;45331;-73
2022/09/29 09:39:17;;;;;;;1.95;0.80;;;16.30;58.60;;;;;;5065845;28;45463;-73
2022/09/29 09:41:45;;;;;;;0.98;0.98;;;16.30;58.50;;;;;;5066373;28;47360;-73
2022/09/29 09:44:15;;;;;;;0.80;0.80;;;16.30;58.50;;;;;;5066439;28;45255;-74
2022/09/29 09:46:43;;;;;;;0.80;0.80;;;16.30;58.50;;;;;;5066343;28;45280;-73
2022/09/29 09:49:14;;;;;;;2.35;0.90;;;16.30;58.40;;;;;;5066784;28;45178;-73
2022/09/29 09:51:45;;;;;;;1.13;0.80;;;16.30;58.50;;;;;;5068134;28;45471;-73
2022/09/29 09:54:14;;;;;;;0.65;0.65;;;16.30;58.30;;;;;;5070037;28;45248;-73
2022/09/29 09:56:56;;;;;;;0.90;0.88;;;16.40;58.40;;;;;;5070118;28;45240;-74
2022/09/29 09:59:31;;;;;;;0.90;0.90;;;16.40;58.50;;;;;;5069919;28;45297;-73
2022/09/29 10:01:58;;;;;;;0.80;0.60;;;16.40;58.60;;;;;;5069965;28;46401;-73
2022/09/29 10:04:25;;;;;;;0.65;0.65;;;16.40;58.50;;;;;;5069604;28;45312;-73
2022/09/29 10:06:52;;;;;;;1.27;0.98;;;16.40;59.00;;;;;;5070168;28;45245;-73
2022/09/29 10:09:19;;;;;;;1.23;1.10;;;16.40;58.50;;;;;;5070504;28;45388;-73
2022/09/29 10:11:46;;;;;;;0.60;0.60;;;16.50;58.50;;;;;;5082165;28;46399;-73
2022/09/29 10:14:15;;;;;;;0.90;0.90;;;16.40;58.30;;;;;;5090147;28;45296;-73
2022/09/29 10:16:45;;;;;;;0.70;0.70;;;16.50;58.40;;;;;;5087625;28;45208;-74
2022/09/29 10:19:12;;;;;;;0.82;0.80;;;16.50;58.40;;;;;;5090437;28;45355;-73
2022/09/29 10:21:40;;;;;;;1.05;0.90;;;16.50;58.30;;;;;;5089522;28;45375;-74
2022/09/29 10:24:21;;;;;;;0.85;0.85;;;16.50;58.30;;;;;;5090314;28;45209;-73
2022/09/29 10:26:48;;;;;;;1.10;0.70;;;16.50;58.30;;;;;;5089851;28;45287;-73
2022/09/29 10:29:33;;;;;;;2.00;0.90;;;16.60;58.30;;;;;;5089834;28;45365;-73
2022/09/29 10:32:04;;;;;;;0.75;0.75;;;16.60;58.10;;;;;;5089402;28;45522;-73
2022/09/29 10:34:31;;;;;;;0.80;0.80;;;16.60;58.20;;;;;;5089441;28;45273;-73
2022/09/29 10:36:59;;;;;;;1.17;0.70;;;16.60;58.10;;;;;;5072285;28;45305;-73
2022/09/29 10:39:33;;;;;;;0.82;0.82;;;16.60;58.20;;;;;;5086677;28;45507;-73
2022/09/29 10:42:00;;;;;;;1.95;1.00;;;16.60;58.10;;;;;;5089392;28;46772;-73
2022/09/29 10:44:31;;;;;;;1.27;0.73;;;16.60;58.00;;;;;;5089705;28;45236;-72
2022/09/29 10:46:58;;;;;;;0.73;0.73;;;16.70;58.10;;;;;;5089677;28;45222;-73
2022/09/29 10:49:27;;;;;;;1.05;0.80;;;16.70;58.00;;;;;;5090563;28;45371;-73
2022/09/29 10:52:00;;;;;;;0.77;0.77;;;16.70;58.00;;;;;;5092681;28;47624;-73
2022/09/29 10:54:27;;;;;;;0.57;0.57;;;16.70;58.00;;;;;;5092304;28;45214;-73
2022/09/29 10:56:55;;;;;;;0.60;0.60;;;16.70;58.10;;;;;;5089408;28;45233;-73
2022/09/29 10:59:22;;;;;;;0.85;0.70;;;16.70;57.90;;;;;;5089702;28;45476;-74
2022/09/29 11:01:50;;;;;;;1.45;0.85;;;16.70;58.10;;;;;;5088575;27;46501;-74
2022/09/29 11:04:19;;;;;;;1.45;0.70;;;16.70;58.00;;;;;;5089359;28;45191;-73
2022/09/29 11:06:47;;;;;;;0.80;0.80;;;16.70;58.00;;;;;;5089613;28;45268;-73
2022/09/29 11:09:28;;;;;;;0.68;0.68;;;16.80;58.10;;;;;;5089459;28;45574;-73
2022/09/29 11:11:56;;;;;;;1.10;0.82;;;16.80;58.10;;;;;;5088545;28;47294;-73
2022/09/29 11:14:27;;;;;;;0.93;0.70;;;16.80;58.00;;;;;;5088959;28;45294;-73
2022/09/29 11:16:55;;;;;;;0.77;0.77;;;16.80;58.00;;;;;;5089476;28;45206;-73
2022/09/29 11:19:22;;;;;;;0.80;0.73;;;16.80;58.00;;;;;;5089807;28;45352;-73
2022/09/29 11:22:16;;;;;;;1.23;0.70;;;16.80;57.90;;;;;;5088739;28;46673;-73
2022/09/29 11:24:50;;;;;;;1.08;0.60;;;16.80;57.90;;;;;;5088761;28;45249;-74
2022/09/29 11:27:24;;;;;;;0.77;0.65;;;16.90;58.10;;;;;;5088975;28;45327;-73
2022/09/29 11:29:54;;;;;;;0.70;0.70;;;16.90;58.00;;;;;;5089051;28;45221;-73
2022/09/29 11:32:29;;;;;;;1.60;0.75;;;16.90;58.00;;;;;;5086275;28;45349;-73
2022/09/29 11:35:04;;;;;;;0.88;0.75;;;16.90;58.00;;;;;;5088472;28;45264;-73
2022/09/29 11:37:41;;;;;;;0.85;0.68;;;16.90;58.00;;;;;;5069842;28;45334;-73
2022/09/29 11:40:11;;;;;;;0.90;0.70;;;16.90;58.00;;;;;;5089043;28;45411;-74
2022/09/29 11:42:51;;;;;;;1.50;0.70;;;16.90;57.90;;;;;;5088615;28;46683;-73
2022/09/29 11:45:20;;;;;;;1.05;0.90;;;16.90;57.90;;;;;;5088701;28;45236;-73
2022/09/29 11:48:30;;;;;;;0.70;0.70;;;17.00;57.90;;;;;;5089686;28;45216;-73
2022/09/29 11:51:00;;;;;;;0.80;0.70;;;17.00;57.90;;;;;;5068328;28;45233;-73
2022/09/29 11:53:39;;;;;;;0.65;0.65;;;17.00;57.90;;;;;;5088837;28;45449;-73
2022/09/29 11:56:18;;;;;;;0.60;0.60;;;17.00;57.80;;;;;;5088626;28;45404;-73
2022/09/29 11:58:55;;;;;;;1.20;0.90;;;17.00;57.80;;;;;;5089368;28;45367;-74
2022/09/29 12:01:34;;;;;;;0.70;0.70;;;17.00;57.90;;;;;;5089466;28;45352;-75
2022/09/29 12:04:10;;;;;;;0.88;0.80;;;17.00;57.90;;;;;;5088896;28;45455;-73
2022/09/29 12:06:56;;;;;;;0.70;0.70;;;17.10;58.00;;;;;;5088543;28;45384;-75
2022/09/29 12:09:43;;;;;;;0.60;0.60;;;17.00;57.90;;;;;;5088880;28;45262;-73
2022/09/29 12:12:12;;;;;;;1.20;0.70;;;17.10;58.00;;;;;;5088570;28;45234;-73
2022/09/29 12:14:57;;;;;;;0.90;0.70;;;17.10;58.00;;;;;;5087648;27;45504;-73
2022/09/29 12:17:24;;;;;;;0.63;0.63;;;17.10;58.00;;;;;;5088664;28;45318;-73
2022/09/29 12:19:54;;;;;;;0.60;0.60;;;17.10;58.00;;;;;;5088963;28;45387;-73
2022/09/29 12:22:21;;;;;;;2.25;0.77;;;17.10;58.00;;;;;;5089002;28;45251;-73
2022/09/29 12:24:51;;;;;;;0.80;0.80;;;17.10;58.00;;;;;;5088472;28;46411;-73
2022/09/29 12:27:19;;;;;;;1.00;0.80;;;17.10;58.00;;;;;;5088727;28;45260;-73
2022/09/29 12:29:48;;;;;;;1.05;0.80;;;17.10;58.10;;;;;;5089091;28;45252;-73
2022/09/29 12:32:18;;;;;;;0.70;0.70;;;17.20;58.10;;;;;;5088937;28;45325;-74
2022/09/29 12:34:47;;;;;;;1.70;0.70;;;17.20;58.10;;;;;;5088240;28;45568;-73
2022/09/29 12:37:16;;;;;;;1.65;0.80;;;17.20;58.10;;;;;;5087682;28;45432;-74
2022/09/29 12:39:46;;;;;;;0.50;0.50;;;17.20;58.10;;;;;;5069073;28;45266;-74
2022/09/29 12:42:24;;;;;;;1.05;0.88;;;17.20;58.60;;;;;;5068055;28;45301;-73
2022/09/29 12:44:53;;;;;;;0.90;0.90;;;17.20;58.10;;;;;;5067934;28;45462;-73
2022/09/29 12:47:22;;;;;;;0.60;0.60;;;17.20;58.10;;;;;;5067923;28;45252;-73
2022/09/29 12:50:01;;;;;;;0.68;0.63;;;17.20;58.00;;;;;;5068445;28;45227;-73
2022/09/29 12:52:31;;;;;;;0.68;0.68;;;17.20;58.00;;;;;;5075260;28;45216;-73
2022/09/29 12:54:59;;;;;;;1.38;0.70;;;17.30;58.00;;;;;;5067842;28;46383;-73
2022/09/29 12:57:31;;;;;;;0.50;0.50;;;17.30;58.00;;;;;;5067703;28;45382;-73
2022/09/29 13:00:00;;;;;;;0.60;0.60;;;17.30;58.00;;;;;;5067828;28;45342;-73
2022/09/29 13:02:46;;;;;;;0.65;0.52;;;17.30;58.00;;;;;;5068123;28;45347;-73